sensor_id;sensor_type;location;lat;lon;timestamp;temperature;humidity
20463;DHT22;10390;53.566;9.980;2023-01-15T00:01:50;22.90;1.00
20463;DHT22;10390;53.566;9.980;2023-01-15T00:04:16;22.90;1.00
20463;DHT22;10390;53.566;9.980;2023-01-15T00:06:42;22.80;1.00
20463;DHT22;10390;53.566;9.980;2023-01-15T00:09:13;22.90;1.00
20463;DHT22;10390;53.566;9.980;2023-01-15T00:11:39;22.80;1.00
20463;DHT22;10390;53.566;9.980;2023-01-15T00:14:04;22.90;1.00
20463;DHT22;10390;53.566;9.980;2023-01-15T00:16:30;22.80;1.00
20463;DHT22;10390;53.566;9.980;2023-01-15T00:18:58;22.80;1.00
20463;DHT22;10390;53.566;9.980;2023-01-15T00:21:25;22.80;1.00
20463;DHT22;10390;53.566;9.980;2023-01-15T00:23:51;22.80;1.00
20463;DHT22;10390;53.566;9.980;2023-01-15T00:26:36;22.80;1.00
20463;DHT22;10390;53.566;9.980;2023-01-15T00:29:22;22.80;1.00
20463;DHT22;10390;53.566;9.980;2023-01-15T00:32:03;22.70;1.00
20463;DHT22;10390;53.566;9.980;2023-01-15T00:34:29;22.70;1.00
20463;DHT22;10390;53.566;9.980;2023-01-15T00:36:55;22.60;1.00
20463;DHT22;10390;53.566;9.980;2023-01-15T00:39:21;22.50;1.00
20463;DHT22;10390;53.566;9.980;2023-01-15T00:41:48;22.50;1.00
20463;DHT22;10390;53.566;9.980;2023-01-15T00:44:15;22.50;1.00
20463;DHT22;10390;53.566;9.980;2023-01-15T00:46:41;22.50;1.00
20463;DHT22;10390;53.566;9.980;2023-01-15T00:49:06;22.50;1.00
20463;DHT22;10390;53.566;9.980;2023-01-15T00:51:32;22.50;1.00
20463;DHT22;10390;53.566;9.980;2023-01-15T00:53:59;22.50;1.00
20463;DHT22;10390;53.566;9.980;2023-01-15T00:56:24;22.50;1.00
20463;DHT22;10390;53.566;9.980;2023-01-15T00:58:50;22.50;1.00
20463;DHT22;10390;53.566;9.980;2023-01-15T01:01:16;22.50;1.00
20463;DHT22;10390;53.566;9.980;2023-01-15T01:03:41;22.50;1.00
20463;DHT22;10390;53.566;9.980;2023-01-15T01:06:07;22.50;1.00
20463;DHT22;10390;53.566;9.980;2023-01-15T01:08:34;22.50;1.00
20463;DHT22;10390;53.566;9.980;2023-01-15T01:11:10;22.50;1.00
20463;DHT22;10390;53.566;9.980;2023-01-15T01:13:37;22.50;1.00
20463;DHT22;10390;53.566;9.980;2023-01-15T01:16:05;22.60;1.00
20463;DHT22;10390;53.566;9.980;2023-01-15T01:18:42;22.50;1.00
20463;DHT22;10390;53.566;9.980;2023-01-15T01:21:07;22.60;1.00
20463;DHT22;10390;53.566;9.980;2023-01-15T01:23:33;22.60;1.00
20463;DHT22;10390;53.566;9.980;2023-01-15T01:25:58;22.60;1.00
20463;DHT22;10390;53.566;9.980;2023-01-15T01:28:24;22.60;1.00
20463;DHT22;10390;53.566;9.980;2023-01-15T01:30:50;22.60;1.00
20463;DHT22;10390;53.566;9.980;2023-01-15T01:33:15;22.70;1.00
20463;DHT22;10390;53.566;9.980;2023-01-15T01:35:47;22.70;1.00
20463;DHT22;10390;53.566;9.980;2023-01-15T01:38:13;22.70;1.00
20463;DHT22;10390;53.566;9.980;2023-01-15T01:40:38;22.70;1.00
20463;DHT22;10390;53.566;9.980;2023-01-15T01:43:16;22.70;1.00
20463;DHT22;10390;53.566;9.980;2023-01-15T01:45:43;22.70;1.00
20463;DHT22;10390;53.566;9.980;2023-01-15T01:48:09;22.60;1.00
20463;DHT22;10390;53.566;9.980;2023-01-15T01:50:36;22.70;1.00
20463;DHT22;10390;53.566;9.980;2023-01-15T01:53:10;22.70;1.00
20463;DHT22;10390;53.566;9.980;2023-01-15T01:55:37;22.60;1.00
20463;DHT22;10390;53.566;9.980;2023-01-15T01:58:04;22.60;1.00
20463;DHT22;10390;53.566;9.980;2023-01-15T02:00:32;22.60;1.00
20463;DHT22;10390;53.566;9.980;2023-01-15T02:03:00;22.60;1.00
20463;DHT22;10390;53.566;9.980;2023-01-15T02:05:30;22.60;1.00
20463;DHT22;10390;53.566;9.980;2023-01-15T02:07:57;22.60;1.00
20463;DHT22;10390;53.566;9.980;2023-01-15T02:10:23;22.50;1.00
20463;DHT22;10390;53.566;9.980;2023-01-15T02:12:57;22.50;1.00
20463;DHT22;10390;53.566;9.980;2023-01-15T02:15:40;22.40;1.00
20463;DHT22;10390;53.566;9.980;2023-01-15T02:18:25;22.30;1.00
20463;DHT22;10390;53.566;9.980;2023-01-15T02:21:04;22.20;1.00
20463;DHT22;10390;53.566;9.980;2023-01-15T02:29:18;22.20;1.00
20463;DHT22;10390;53.566;9.980;2023-01-15T02:31:49;22.30;1.00
20463;DHT22;10390;53.566;9.980;2023-01-15T02:34:24;22.30;1.00
20463;DHT22;10390;53.566;9.980;2023-01-15T02:37:12;22.30;1.00
20463;DHT22;10390;53.566;9.980;2023-01-15T02:39:41;22.30;1.00
20463;DHT22;10390;53.566;9.980;2023-01-15T02:42:09;22.30;1.00
20463;DHT22;10390;53.566;9.980;2023-01-15T02:44:40;22.30;1.00
20463;DHT22;10390;53.566;9.980;2023-01-15T02:47:07;22.40;1.00
20463;DHT22;10390;53.566;9.980;2023-01-15T02:49:35;22.40;1.00
20463;DHT22;10390;53.566;9.980;2023-01-15T02:52:05;22.40;1.00
20463;DHT22;10390;53.566;9.980;2023-01-15T02:54:58;22.40;1.00
20463;DHT22;10390;53.566;9.980;2023-01-15T02:57:27;22.40;1.00
20463;DHT22;10390;53.566;9.980;2023-01-15T02:59:57;22.50;1.00
20463;DHT22;10390;53.566;9.980;2023-01-15T03:02:27;22.50;1.00
20463;DHT22;10390;53.566;9.980;2023-01-15T03:07:53;22.50;1.00
20463;DHT22;10390;53.566;9.980;2023-01-15T03:10:23;22.50;1.00
20463;DHT22;10390;53.566;9.980;2023-01-15T03:12:56;22.50;1.00
20463;DHT22;10390;53.566;9.980;2023-01-15T03:15:43;22.50;1.00
20463;DHT22;10390;53.566;9.980;2023-01-15T03:18:36;22.50;1.00
20463;DHT22;10390;53.566;9.980;2023-01-15T03:21:09;22.50;1.00
20463;DHT22;10390;53.566;9.980;2023-01-15T03:23:39;22.50;1.00
20463;DHT22;10390;53.566;9.980;2023-01-15T03:26:07;22.50;1.00
20463;DHT22;10390;53.566;9.980;2023-01-15T03:28:35;22.50;1.00
20463;DHT22;10390;53.566;9.980;2023-01-15T03:31:01;22.40;1.00
20463;DHT22;10390;53.566;9.980;2023-01-15T03:33:28;22.50;1.00
20463;DHT22;10390;53.566;9.980;2023-01-15T03:35:57;22.40;1.00
20463;DHT22;10390;53.566;9.980;2023-01-15T03:38:34;22.40;1.00
20463;DHT22;10390;53.566;9.980;2023-01-15T03:41:06;22.40;1.00
20463;DHT22;10390;53.566;9.980;2023-01-15T03:49:20;22.30;1.00
20463;DHT22;10390;53.566;9.980;2023-01-15T03:52:04;22.20;1.00
20463;DHT22;10390;53.566;9.980;2023-01-15T03:54:43;22.20;1.00
20463;DHT22;10390;53.566;9.980;2023-01-15T03:57:26;22.20;1.00
20463;DHT22;10390;53.566;9.980;2023-01-15T03:59:57;22.20;1.00
20463;DHT22;10390;53.566;9.980;2023-01-15T04:02:26;22.20;1.00
20463;DHT22;10390;53.566;9.980;2023-01-15T04:04:55;22.20;1.00
20463;DHT22;10390;53.566;9.980;2023-01-15T04:07:24;22.20;1.00
20463;DHT22;10390;53.566;9.980;2023-01-15T04:09:50;22.20;1.00
20463;DHT22;10390;53.566;9.980;2023-01-15T04:12:16;22.10;1.00
20463;DHT22;10390;53.566;9.980;2023-01-15T04:14:41;22.20;1.00
20463;DHT22;10390;53.566;9.980;2023-01-15T04:17:07;22.20;1.00
20463;DHT22;10390;53.566;9.980;2023-01-15T04:19:33;22.20;1.00
20463;DHT22;10390;53.566;9.980;2023-01-15T04:21:58;22.20;1.00
20463;DHT22;10390;53.566;9.980;2023-01-15T04:24:24;22.30;1.00
20463;DHT22;10390;53.566;9.980;2023-01-15T04:26:49;22.30;1.00
20463;DHT22;10390;53.566;9.980;2023-01-15T04:29:15;22.30;1.00
20463;DHT22;10390;53.566;9.980;2023-01-15T04:31:41;22.30;1.00
20463;DHT22;10390;53.566;9.980;2023-01-15T04:34:06;22.30;1.00
20463;DHT22;10390;53.566;9.980;2023-01-15T04:36:32;22.30;1.00
20463;DHT22;10390;53.566;9.980;2023-01-15T04:39:01;22.40;1.00
20463;DHT22;10390;53.566;9.980;2023-01-15T04:41:27;22.40;1.00
20463;DHT22;10390;53.566;9.980;2023-01-15T04:44:12;22.40;1.00
20463;DHT22;10390;53.566;9.980;2023-01-15T04:46:41;22.40;1.00
20463;DHT22;10390;53.566;9.980;2023-01-15T04:49:12;22.40;1.00
20463;DHT22;10390;53.566;9.980;2023-01-15T04:51:38;22.40;1.00
20463;DHT22;10390;53.566;9.980;2023-01-15T04:54:05;22.40;1.00
20463;DHT22;10390;53.566;9.980;2023-01-15T04:56:36;22.40;1.00
20463;DHT22;10390;53.566;9.980;2023-01-15T04:59:02;22.40;1.00
20463;DHT22;10390;53.566;9.980;2023-01-15T05:01:27;22.40;1.00
20463;DHT22;10390;53.566;9.980;2023-01-15T05:03:53;22.40;1.00
20463;DHT22;10390;53.566;9.980;2023-01-15T05:06:19;22.40;1.00
20463;DHT22;10390;53.566;9.980;2023-01-15T05:08:44;22.40;1.00
20463;DHT22;10390;53.566;9.980;2023-01-15T05:11:10;22.30;1.00
20463;DHT22;10390;53.566;9.980;2023-01-15T05:13:36;22.30;1.00
20463;DHT22;10390;53.566;9.980;2023-01-15T05:16:10;22.20;1.00
20463;DHT22;10390;53.566;9.980;2023-01-15T05:18:37;22.20;1.00
20463;DHT22;10390;53.566;9.980;2023-01-15T05:21:03;22.10;1.00
20463;DHT22;10390;53.566;9.980;2023-01-15T05:23:29;22.10;1.00
20463;DHT22;10390;53.566;9.980;2023-01-15T05:25:54;22.20;1.00
20463;DHT22;10390;53.566;9.980;2023-01-15T05:28:20;22.10;1.00
20463;DHT22;10390;53.566;9.980;2023-01-15T05:30:45;22.20;1.00
20463;DHT22;10390;53.566;9.980;2023-01-15T05:33:11;22.20;1.00
20463;DHT22;10390;53.566;9.980;2023-01-15T05:35:37;22.20;1.00
20463;DHT22;10390;53.566;9.980;2023-01-15T05:38:02;22.10;1.00
20463;DHT22;10390;53.566;9.980;2023-01-15T05:40:30;22.20;1.00
20463;DHT22;10390;53.566;9.980;2023-01-15T05:42:56;22.20;1.00
20463;DHT22;10390;53.566;9.980;2023-01-15T05:45:22;22.10;1.00
20463;DHT22;10390;53.566;9.980;2023-01-15T05:47:47;22.20;1.00
20463;DHT22;10390;53.566;9.980;2023-01-15T05:50:13;22.20;1.00
20463;DHT22;10390;53.566;9.980;2023-01-15T05:52:39;22.20;1.00
20463;DHT22;10390;53.566;9.980;2023-01-15T05:55:04;22.20;1.00
20463;DHT22;10390;53.566;9.980;2023-01-15T05:57:30;22.20;1.00
20463;DHT22;10390;53.566;9.980;2023-01-15T05:59:57;22.20;1.00
20463;DHT22;10390;53.566;9.980;2023-01-15T06:02:23;22.20;1.00
20463;DHT22;10390;53.566;9.980;2023-01-15T06:04:49;22.30;1.00
20463;DHT22;10390;53.566;9.980;2023-01-15T06:07:14;22.30;1.00
20463;DHT22;10390;53.566;9.980;2023-01-15T06:09:42;22.30;1.00
20463;DHT22;10390;53.566;9.980;2023-01-15T06:12:08;22.30;1.00
20463;DHT22;10390;53.566;9.980;2023-01-15T06:14:34;22.30;1.00
20463;DHT22;10390;53.566;9.980;2023-01-15T06:16:59;22.30;1.00
20463;DHT22;10390;53.566;9.980;2023-01-15T06:19:25;22.30;1.00
20463;DHT22;10390;53.566;9.980;2023-01-15T06:21:50;22.30;1.00
20463;DHT22;10390;53.566;9.980;2023-01-15T06:24:16;22.20;1.00
20463;DHT22;10390;53.566;9.980;2023-01-15T06:26:44;22.30;1.00
20463;DHT22;10390;53.566;9.980;2023-01-15T06:29:09;22.30;1.00
20463;DHT22;10390;53.566;9.980;2023-01-15T06:31:35;22.30;1.00
20463;DHT22;10390;53.566;9.980;2023-01-15T06:34:01;22.30;1.00
20463;DHT22;10390;53.566;9.980;2023-01-15T06:36:28;22.30;1.00
20463;DHT22;10390;53.566;9.980;2023-01-15T06:38:54;22.30;1.00
20463;DHT22;10390;53.566;9.980;2023-01-15T06:41:22;22.30;1.00
20463;DHT22;10390;53.566;9.980;2023-01-15T06:44:10;22.30;1.00
20463;DHT22;10390;53.566;9.980;2023-01-15T06:46:55;22.20;1.00
20463;DHT22;10390;53.566;9.980;2023-01-15T06:49:39;22.20;1.00
20463;DHT22;10390;53.566;9.980;2023-01-15T06:52:05;22.10;1.00
20463;DHT22;10390;53.566;9.980;2023-01-15T06:54:31;22.10;1.00
20463;DHT22;10390;53.566;9.980;2023-01-15T06:56:57;22.10;1.00
20463;DHT22;10390;53.566;9.980;2023-01-15T06:59:23;22.10;1.00
20463;DHT22;10390;53.566;9.980;2023-01-15T07:01:49;22.00;1.00
20463;DHT22;10390;53.566;9.980;2023-01-15T07:04:15;22.00;1.00
20463;DHT22;10390;53.566;9.980;2023-01-15T07:06:40;22.00;1.00
20463;DHT22;10390;53.566;9.980;2023-01-15T07:09:06;22.00;1.00
20463;DHT22;10390;53.566;9.980;2023-01-15T07:11:32;22.10;1.00
20463;DHT22;10390;53.566;9.980;2023-01-15T07:13:57;22.10;1.00
20463;DHT22;10390;53.566;9.980;2023-01-15T07:16:36;22.10;1.00
20463;DHT22;10390;53.566;9.980;2023-01-15T07:19:02;22.10;1.00
20463;DHT22;10390;53.566;9.980;2023-01-15T07:21:29;22.10;1.00
20463;DHT22;10390;53.566;9.980;2023-01-15T07:23:58;22.10;1.00
20463;DHT22;10390;53.566;9.980;2023-01-15T07:26:25;22.10;1.00
20463;DHT22;10390;53.566;9.980;2023-01-15T07:28:51;22.10;1.00
20463;DHT22;10390;53.566;9.980;2023-01-15T07:31:16;22.20;1.00
20463;DHT22;10390;53.566;9.980;2023-01-15T07:33:42;22.20;1.00
20463;DHT22;10390;53.566;9.980;2023-01-15T07:36:08;22.20;1.00
20463;DHT22;10390;53.566;9.980;2023-01-15T07:38:33;22.20;1.00
20463;DHT22;10390;53.566;9.980;2023-01-15T07:41:00;22.20;1.00
20463;DHT22;10390;53.566;9.980;2023-01-15T07:43:44;22.30;1.00
20463;DHT22;10390;53.566;9.980;2023-01-15T07:46:28;22.30;1.00
20463;DHT22;10390;53.566;9.980;2023-01-15T07:49:13;22.30;1.00
20463;DHT22;10390;53.566;9.980;2023-01-15T07:51:57;22.20;1.00
20463;DHT22;10390;53.566;9.980;2023-01-15T07:54:23;22.20;1.00
20463;DHT22;10390;53.566;9.980;2023-01-15T07:56:50;22.20;1.00
20463;DHT22;10390;53.566;9.980;2023-01-15T07:59:17;22.30;1.00
20463;DHT22;10390;53.566;9.980;2023-01-15T08:01:42;22.30;1.00
20463;DHT22;10390;53.566;9.980;2023-01-15T08:04:08;22.30;1.00
20463;DHT22;10390;53.566;9.980;2023-01-15T08:06:34;22.30;1.00
20463;DHT22;10390;53.566;9.980;2023-01-15T08:09:00;22.30;1.00
20463;DHT22;10390;53.566;9.980;2023-01-15T08:11:26;22.30;1.00
20463;DHT22;10390;53.566;9.980;2023-01-15T08:14:10;22.30;1.00
20463;DHT22;10390;53.566;9.980;2023-01-15T08:16:54;22.30;1.00
20463;DHT22;10390;53.566;9.980;2023-01-15T08:19:20;22.30;1.00
20463;DHT22;10390;53.566;9.980;2023-01-15T08:21:46;22.30;1.00
20463;DHT22;10390;53.566;9.980;2023-01-15T08:24:12;22.30;1.00
20463;DHT22;10390;53.566;9.980;2023-01-15T08:26:38;22.20;1.00
20463;DHT22;10390;53.566;9.980;2023-01-15T08:29:03;22.20;1.00
20463;DHT22;10390;53.566;9.980;2023-01-15T08:31:29;22.20;1.00
20463;DHT22;10390;53.566;9.980;2023-01-15T08:33:55;22.10;1.00
20463;DHT22;10390;53.566;9.980;2023-01-15T08:36:20;22.10;1.00
20463;DHT22;10390;53.566;9.980;2023-01-15T08:38:48;22.10;1.00
20463;DHT22;10390;53.566;9.980;2023-01-15T08:41:15;22.10;1.00
20463;DHT22;10390;53.566;9.980;2023-01-15T08:43:41;22.10;1.00
20463;DHT22;10390;53.566;9.980;2023-01-15T08:46:06;22.10;1.00
20463;DHT22;10390;53.566;9.980;2023-01-15T08:48:33;22.10;1.00
20463;DHT22;10390;53.566;9.980;2023-01-15T08:51:02;22.10;1.00
20463;DHT22;10390;53.566;9.980;2023-01-15T08:53:27;22.00;1.00
20463;DHT22;10390;53.566;9.980;2023-01-15T08:55:54;22.10;1.00
20463;DHT22;10390;53.566;9.980;2023-01-15T08:58:19;22.10;1.00
20463;DHT22;10390;53.566;9.980;2023-01-15T09:00:45;22.10;1.00
20463;DHT22;10390;53.566;9.980;2023-01-15T09:03:11;22.10;1.00
20463;DHT22;10390;53.566;9.980;2023-01-15T09:05:36;22.10;1.00
20463;DHT22;10390;53.566;9.980;2023-01-15T09:08:04;22.10;1.00
20463;DHT22;10390;53.566;9.980;2023-01-15T09:10:30;22.20;1.00
20463;DHT22;10390;53.566;9.980;2023-01-15T09:13:01;22.30;1.00
20463;DHT22;10390;53.566;9.980;2023-01-15T09:15:28;22.50;1.00
20463;DHT22;10390;53.566;9.980;2023-01-15T09:17:55;22.60;1.00
20463;DHT22;10390;53.566;9.980;2023-01-15T09:20:21;22.80;1.00
20463;DHT22;10390;53.566;9.980;2023-01-15T09:22:46;23.00;1.00
20463;DHT22;10390;53.566;9.980;2023-01-15T09:25:14;23.10;1.00
20463;DHT22;10390;53.566;9.980;2023-01-15T09:27:41;23.20;1.00
20463;DHT22;10390;53.566;9.980;2023-01-15T09:30:09;23.40;1.00
20463;DHT22;10390;53.566;9.980;2023-01-15T09:32:35;23.50;1.00
20463;DHT22;10390;53.566;9.980;2023-01-15T09:35:01;23.60;1.00
20463;DHT22;10390;53.566;9.980;2023-01-15T09:37:27;23.70;1.00
20463;DHT22;10390;53.566;9.980;2023-01-15T09:39:52;23.80;1.00
20463;DHT22;10390;53.566;9.980;2023-01-15T09:42:42;23.80;1.00
20463;DHT22;10390;53.566;9.980;2023-01-15T09:50:47;23.80;1.00
20463;DHT22;10390;53.566;9.980;2023-01-15T09:56:21;23.90;1.00
20463;DHT22;10390;53.566;9.980;2023-01-15T09:58:49;23.90;1.00
20463;DHT22;10390;53.566;9.980;2023-01-15T10:01:18;23.90;1.00
20463;DHT22;10390;53.566;9.980;2023-01-15T10:03:50;23.90;1.00
20463;DHT22;10390;53.566;9.980;2023-01-15T10:06:24;24.00;1.00
20463;DHT22;10390;53.566;9.980;2023-01-15T10:08:58;24.00;1.00
20463;DHT22;10390;53.566;9.980;2023-01-15T10:11:34;24.00;1.00
20463;DHT22;10390;53.566;9.980;2023-01-15T10:14:46;24.10;1.00
20463;DHT22;10390;53.566;9.980;2023-01-15T10:17:21;24.10;1.00
20463;DHT22;10390;53.566;9.980;2023-01-15T10:19:50;24.10;1.00
20463;DHT22;10390;53.566;9.980;2023-01-15T10:25:01;24.20;1.00
20463;DHT22;10390;53.566;9.980;2023-01-15T10:27:30;24.20;1.00
20463;DHT22;10390;53.566;9.980;2023-01-15T10:30:20;24.10;1.00
20463;DHT22;10390;53.566;9.980;2023-01-15T10:32:54;24.10;1.00
20463;DHT22;10390;53.566;9.980;2023-01-15T10:43:09;24.10;1.00
20463;DHT22;10390;53.566;9.980;2023-01-15T10:45:44;24.10;1.00
20463;DHT22;10390;53.566;9.980;2023-01-15T10:48:27;24.20;1.00
20463;DHT22;10390;53.566;9.980;2023-01-15T10:50:55;24.20;1.00
20463;DHT22;10390;53.566;9.980;2023-01-15T10:53:42;24.20;1.00
20463;DHT22;10390;53.566;9.980;2023-01-15T10:56:36;24.30;1.00
20463;DHT22;10390;53.566;9.980;2023-01-15T10:59:19;24.30;1.00
20463;DHT22;10390;53.566;9.980;2023-01-15T11:01:49;24.30;1.00
20463;DHT22;10390;53.566;9.980;2023-01-15T11:04:16;24.30;1.00
20463;DHT22;10390;53.566;9.980;2023-01-15T11:06:42;24.30;1.00
20463;DHT22;10390;53.566;9.980;2023-01-15T11:09:22;24.30;1.00
20463;DHT22;10390;53.566;9.980;2023-01-15T11:11:53;24.40;1.00
20463;DHT22;10390;53.566;9.980;2023-01-15T11:14:46;24.40;1.00
20463;DHT22;10390;53.566;9.980;2023-01-15T11:17:41;24.40;1.00
20463;DHT22;10390;53.566;9.980;2023-01-15T11:23:21;24.40;1.00
20463;DHT22;10390;53.566;9.980;2023-01-15T11:28:14;24.40;1.00
20463;DHT22;10390;53.566;9.980;2023-01-15T11:30:42;24.30;1.00
20463;DHT22;10390;53.566;9.980;2023-01-15T11:33:26;24.30;1.00
20463;DHT22;10390;53.566;9.980;2023-01-15T11:35:58;24.30;1.00
20463;DHT22;10390;53.566;9.980;2023-01-15T11:38:29;24.40;1.00
20463;DHT22;10390;53.566;9.980;2023-01-15T11:41:00;24.50;1.00
20463;DHT22;10390;53.566;9.980;2023-01-15T11:43:28;24.60;1.00
20463;DHT22;10390;53.566;9.980;2023-01-15T11:46:23;24.60;1.00
20463;DHT22;10390;53.566;9.980;2023-01-15T11:49:09;24.70;1.00
20463;DHT22;10390;53.566;9.980;2023-01-15T11:51:55;24.80;1.00
20463;DHT22;10390;53.566;9.980;2023-01-15T11:54:23;24.90;1.00
20463;DHT22;10390;53.566;9.980;2023-01-15T11:56:51;25.00;1.00
20463;DHT22;10390;53.566;9.980;2023-01-15T11:59:18;25.10;1.00
20463;DHT22;10390;53.566;9.980;2023-01-15T12:01:54;25.10;1.00
20463;DHT22;10390;53.566;9.980;2023-01-15T12:04:55;25.20;1.00
20463;DHT22;10390;53.566;9.980;2023-01-15T12:07:23;25.30;1.00
20463;DHT22;10390;53.566;9.980;2023-01-15T12:10:15;25.30;1.00
20463;DHT22;10390;53.566;9.980;2023-01-15T12:13:01;25.30;1.00
20463;DHT22;10390;53.566;9.980;2023-01-15T12:15:32;25.30;1.00
20463;DHT22;10390;53.566;9.980;2023-01-15T12:18:07;25.30;1.00
20463;DHT22;10390;53.566;9.980;2023-01-15T12:20:56;25.30;1.00
20463;DHT22;10390;53.566;9.980;2023-01-15T12:26:37;25.20;1.00
20463;DHT22;10390;53.566;9.980;2023-01-15T12:29:21;25.20;1.00
20463;DHT22;10390;53.566;9.980;2023-01-15T12:31:56;25.10;1.00
20463;DHT22;10390;53.566;9.980;2023-01-15T12:37:39;25.10;1.00
20463;DHT22;10390;53.566;9.980;2023-01-15T12:42:39;25.10;1.00
20463;DHT22;10390;53.566;9.980;2023-01-15T12:45:28;25.10;1.00
20463;DHT22;10390;53.566;9.980;2023-01-15T12:50:43;25.10;1.00
20463;DHT22;10390;53.566;9.980;2023-01-15T12:53:23;25.10;1.00
20463;DHT22;10390;53.566;9.980;2023-01-15T13:01:10;25.10;1.00
20463;DHT22;10390;53.566;9.980;2023-01-15T13:04:08;25.20;1.00
20463;DHT22;10390;53.566;9.980;2023-01-15T13:06:39;25.30;1.00
20463;DHT22;10390;53.566;9.980;2023-01-15T13:09:40;25.30;1.00
20463;DHT22;10390;53.566;9.980;2023-01-15T13:12:12;25.40;1.00
20463;DHT22;10390;53.566;9.980;2023-01-15T13:14:39;25.40;1.00
20463;DHT22;10390;53.566;9.980;2023-01-15T13:20:17;25.40;1.00
20463;DHT22;10390;53.566;9.980;2023-01-15T13:28:43;25.40;1.00
20463;DHT22;10390;53.566;9.980;2023-01-15T13:31:18;25.40;1.00
20463;DHT22;10390;53.566;9.980;2023-01-15T13:33:52;25.30;1.00
20463;DHT22;10390;53.566;9.980;2023-01-15T13:36:36;25.30;1.00
20463;DHT22;10390;53.566;9.980;2023-01-15T13:39:06;25.20;1.00
20463;DHT22;10390;53.566;9.980;2023-01-15T13:41:34;25.20;1.00
20463;DHT22;10390;53.566;9.980;2023-01-15T13:44:21;25.20;1.00
20463;DHT22;10390;53.566;9.980;2023-01-15T13:46:58;25.20;1.00
20463;DHT22;10390;53.566;9.980;2023-01-15T13:49:49;25.20;1.00
20463;DHT22;10390;53.566;9.980;2023-01-15T13:52:30;25.20;1.00
20463;DHT22;10390;53.566;9.980;2023-01-15T13:55:00;25.10;1.00
20463;DHT22;10390;53.566;9.980;2023-01-15T13:57:35;25.10;1.00
20463;DHT22;10390;53.566;9.980;2023-01-15T14:00:07;25.10;1.00
20463;DHT22;10390;53.566;9.980;2023-01-15T14:02:36;25.20;1.00
20463;DHT22;10390;53.566;9.980;2023-01-15T14:07:47;25.20;1.00
20463;DHT22;10390;53.566;9.980;2023-01-15T14:35:03;25.40;1.00
20463;DHT22;10390;53.566;9.980;2023-01-15T14:37:43;25.40;1.00
20463;DHT22;10390;53.566;9.980;2023-01-15T14:40:37;25.40;1.00
20463;DHT22;10390;53.566;9.980;2023-01-15T14:43:16;25.50;1.00
20463;DHT22;10390;53.566;9.980;2023-01-15T14:45:44;25.50;1.00
20463;DHT22;10390;53.566;9.980;2023-01-15T14:48:18;25.50;1.00
20463;DHT22;10390;53.566;9.980;2023-01-15T14:50:46;25.50;1.00
20463;DHT22;10390;53.566;9.980;2023-01-15T14:53:15;25.60;1.00
20463;DHT22;10390;53.566;9.980;2023-01-15T14:56:03;25.50;1.00
20463;DHT22;10390;53.566;9.980;2023-01-15T14:58:33;25.50;1.00
20463;DHT22;10390;53.566;9.980;2023-01-15T15:04:04;25.50;1.00
20463;DHT22;10390;53.566;9.980;2023-01-15T15:06:32;25.40;1.00
20463;DHT22;10390;53.566;9.980;2023-01-15T15:09:03;25.40;1.00
20463;DHT22;10390;53.566;9.980;2023-01-15T15:11:40;25.40;1.00
20463;DHT22;10390;53.566;9.980;2023-01-15T15:14:25;25.40;1.00
20463;DHT22;10390;53.566;9.980;2023-01-15T15:16:52;25.40;1.00
20463;DHT22;10390;53.566;9.980;2023-01-15T15:19:46;25.30;1.00
20463;DHT22;10390;53.566;9.980;2023-01-15T15:22:15;25.30;1.00
20463;DHT22;10390;53.566;9.980;2023-01-15T15:24:46;25.30;1.00
20463;DHT22;10390;53.566;9.980;2023-01-15T15:27:15;25.30;1.00
20463;DHT22;10390;53.566;9.980;2023-01-15T15:29:41;25.30;1.00
20463;DHT22;10390;53.566;9.980;2023-01-15T15:32:12;25.30;1.00
20463;DHT22;10390;53.566;9.980;2023-01-15T15:34:40;25.30;1.00
20463;DHT22;10390;53.566;9.980;2023-01-15T15:37:21;25.30;1.00
20463;DHT22;10390;53.566;9.980;2023-01-15T15:40:05;25.20;1.00
20463;DHT22;10390;53.566;9.980;2023-01-15T15:42:40;25.20;1.00
20463;DHT22;10390;53.566;9.980;2023-01-15T15:45:28;25.20;1.00
20463;DHT22;10390;53.566;9.980;2023-01-15T15:48:30;25.10;1.00
20463;DHT22;10390;53.566;9.980;2023-01-15T15:51:44;25.10;1.00
20463;DHT22;10390;53.566;9.980;2023-01-15T15:54:21;25.00;1.00
20463;DHT22;10390;53.566;9.980;2023-01-15T15:57:04;25.00;1.00
20463;DHT22;10390;53.566;9.980;2023-01-15T15:59:36;25.00;1.00
20463;DHT22;10390;53.566;9.980;2023-01-15T16:04:50;24.80;1.00
20463;DHT22;10390;53.566;9.980;2023-01-15T16:07:31;24.80;1.00
20463;DHT22;10390;53.566;9.980;2023-01-15T16:12:33;24.70;1.00
20463;DHT22;10390;53.566;9.980;2023-01-15T16:15:02;24.60;1.00
20463;DHT22;10390;53.566;9.980;2023-01-15T16:17:28;24.50;1.00
20463;DHT22;10390;53.566;9.980;2023-01-15T16:19:55;24.50;1.00
20463;DHT22;10390;53.566;9.980;2023-01-15T16:22:21;24.50;1.00
20463;DHT22;10390;53.566;9.980;2023-01-15T16:24:55;24.40;1.00
20463;DHT22;10390;53.566;9.980;2023-01-15T16:27:21;24.30;1.00
20463;DHT22;10390;53.566;9.980;2023-01-15T16:29:49;24.30;1.00
20463;DHT22;10390;53.566;9.980;2023-01-15T16:32:24;24.30;1.00
20463;DHT22;10390;53.566;9.980;2023-01-15T16:35:03;24.30;1.00
20463;DHT22;10390;53.566;9.980;2023-01-15T16:37:30;24.30;1.00
20463;DHT22;10390;53.566;9.980;2023-01-15T16:39:58;24.30;1.00
20463;DHT22;10390;53.566;9.980;2023-01-15T16:42:42;24.30;1.00
20463;DHT22;10390;53.566;9.980;2023-01-15T16:45:22;24.30;1.00
20463;DHT22;10390;53.566;9.980;2023-01-15T16:50:54;24.40;1.00
20463;DHT22;10390;53.566;9.980;2023-01-15T16:53:39;24.50;1.00
20463;DHT22;10390;53.566;9.980;2023-01-15T16:57:05;24.50;1.00
20463;DHT22;10390;53.566;9.980;2023-01-15T16:59:16;24.50;1.00
20463;DHT22;10390;53.566;9.980;2023-01-15T17:01:44;24.60;1.00
20463;DHT22;10390;53.566;9.980;2023-01-15T17:04:26;24.70;1.00
20463;DHT22;10390;53.566;9.980;2023-01-15T17:07:18;24.70;1.00
20463;DHT22;10390;53.566;9.980;2023-01-15T17:09:48;24.70;1.00
20463;DHT22;10390;53.566;9.980;2023-01-15T17:12:28;24.70;1.00
20463;DHT22;10390;53.566;9.980;2023-01-15T17:15:09;24.70;1.00
20463;DHT22;10390;53.566;9.980;2023-01-15T17:20:11;24.70;1.00
20463;DHT22;10390;53.566;9.980;2023-01-15T17:22:40;24.70;1.00
20463;DHT22;10390;53.566;9.980;2023-01-15T17:25:28;24.70;1.00
20463;DHT22;10390;53.566;9.980;2023-01-15T17:27:56;24.70;1.00
20463;DHT22;10390;53.566;9.980;2023-01-15T17:30:24;24.60;1.00
20463;DHT22;10390;53.566;9.980;2023-01-15T17:32:58;24.60;1.00
20463;DHT22;10390;53.566;9.980;2023-01-15T17:35:33;24.60;1.00
20463;DHT22;10390;53.566;9.980;2023-01-15T17:37:58;24.50;1.00
20463;DHT22;10390;53.566;9.980;2023-01-15T17:40:24;24.50;1.00
20463;DHT22;10390;53.566;9.980;2023-01-15T17:42:50;24.50;1.00
20463;DHT22;10390;53.566;9.980;2023-01-15T17:45:21;24.60;1.00
20463;DHT22;10390;53.566;9.980;2023-01-15T17:47:47;24.70;1.00
20463;DHT22;10390;53.566;9.980;2023-01-15T17:50:14;24.70;1.00
20463;DHT22;10390;53.566;9.980;2023-01-15T17:52:40;24.80;1.00
20463;DHT22;10390;53.566;9.980;2023-01-15T17:55:13;24.90;1.00
20463;DHT22;10390;53.566;9.980;2023-01-15T17:57:57;24.90;1.00
20463;DHT22;10390;53.566;9.980;2023-01-15T18:00:41;25.00;1.00